• Join FlightAware (Why Join?)
  • Login
  • US Flag 
01:35AM EDT


 

Airport Tracker/Info


-or-


 

Live Flight TrackerFlight Track Log ✈ UAL532 ✈ 13-Jun-2013 ✈ KORD - KBOS

Flight Track Log - Related Links

Times and Time Zones

All times are in EDT time to prevent confusion due to time zone crossing. See the UAL532 flight status page for this flight to view local times or setup timezone preferences in your user account.

Time Position Orientation Groundspeed Altitude Reporting Facility
EDT Latitude Longitude Course Direction KTS MPH feet Rate Location/Type
12:11PM 42.0000 -87.8833 75° East 149 171 1,900  Level Chicago TRACON
12:12PM 42.0000 -87.8167 90° East 213 245 2,900 1,320 Climbing Chicago TRACON
12:13PM 41.9950 -87.7983 110° East 212 244 3,600 2,700 Climbing Chicago Center
12:14PM 42.1351 -87.4540 62° Northeast  Level FlightAware Approximate
12:14PM 41.9903 -87.6783 93° East 268 308 6,700  Level Chicago Center
12:15PM 42.1887 -87.3009 66° East  Level FlightAware Approximate
12:15PM 42.0297 -87.5931 58° Northeast 271 312 9,600  Level Chicago Center
12:16PM 42.2425 -87.1478 63° Northeast  Level FlightAware Approximate
12:16PM 42.0728 -87.5008 58° Northeast 289 333 11,700  Level Chicago Center
12:17PM 42.2758 -86.9876 75° East  Level FlightAware Approximate
12:17PM 42.1242 -87.3942 57° Northeast 339 390 13,400  Level Chicago Center
12:18PM 42.1772 -87.2792 58° Northeast 360 414 15,500 1,920 Climbing Chicago Center
12:19PM 42.2333 -87.1589 58° Northeast 379 436 17,400 1,800 Climbing Chicago Center
12:20PM 42.2806 -86.9944 69° East 419 482 19,300 1,800 Climbing Chicago Center
12:21PM 42.2881 -86.8333 86° East 436 502 21,200 1,680 Climbing Chicago Center
12:22PM 42.2942 -86.6756 87° East 439 505 22,800 1,500 Climbing Chicago Center
12:23PM 42.3008 -86.4842 87° East 447 514 24,400 1,440 Climbing Chicago Center
12:24PM 42.3075 -86.3139 87° East 456 525 25,800 1,260 Climbing Chicago Center
12:25PM 42.3133 -86.1375 87° East 468 539 27,100 1,200 Climbing Chicago Center
12:26PM 42.3133 -85.9594 90° East 477 549 28,300 1,020 Climbing Chicago Center
12:27PM 42.3111 -85.7794 91° East 483 556 29,300 1,080 Climbing Chicago Center
12:28PM 42.3083 -85.5594 91° East 490 564 30,600 1,200 Climbing Chicago Center
12:29PM 42.3064 -85.3750 91° East 493 567 31,900 1,200 Climbing Chicago Center
12:30PM 42.3025 -85.1917 92° East 493 567 33,200 1,080 Climbing Chicago Center
12:31PM 42.2994 -85.0114 91° East 486 559 34,200 840 Climbing Chicago Center
12:32PM 42.2953 -84.8306 92° East 484 557 35,000 360 Climbing Chicago Center
12:33PM 42.2900 -84.6161 92° East 480 552 35,000  Level Chicago Center
12:34PM 42.3036 -84.4381 84° East 478 550 35,000  Level Chicago Center
12:35PM 42.3186 -84.3069 81° East 474 545 35,000  Level Cleveland Center
12:36PM 42.3347 -84.1225 83° East 479 551 35,000  Level Cleveland Center
12:37PM 42.3486 -83.9433 84° East 479 551 35,000  Level Cleveland Center
12:38PM 42.3642 -83.7617 83° East 479 551 35,000 -60 Level Cleveland Center
12:39PM 42.3722 -83.6186 86° East 479 551 34,900 -60 Descending Cleveland Center
12:40PM 42.3875 -83.4225 84° East 479 551 34,900  Level Cleveland Center
12:41PM 42.4025 -83.2406 84° East 479 551 35,000  Climbing Cleveland Center
12:42PM 42.4147 -83.0581 85° East 480 552 35,000  Level Cleveland Center
12:43PM 42.4294 -82.8589 84° East 480 552 35,000  Level Cleveland Center
12:44PM 42.4433 -82.6767 84° East 480 552 35,000 -60 Level Cleveland Center
12:45PM 42.4589 -82.4914 83° East 488 562 34,900  Descending Cleveland Center
12:46PM 42.4703 -82.3058 85° East 494 568 35,000  Climbing Cleveland Center
12:47PM 42.4833 -82.1175 85° East 501 577 35,000  Level Cleveland Center
12:48PM 42.4981 -81.9292 84° East 494 568 35,000  Level Cleveland Center
12:49PM 42.5106 -81.7464 85° East 494 568 35,000 -60 Level Cleveland Center
12:50PM 42.5228 -81.5608 85° East 494 568 34,900 -60 Descending Cleveland Center
12:51PM 42.5325 -81.3722 86° East 500 575 34,900  Level Cleveland Center
12:52PM 42.5439 -81.2061 85° East 495 570 35,000  Climbing Cleveland Center
12:53PM 42.5553 -81.0144 85° East 501 577 35,000  Level Cleveland Center
12:54PM 42.5664 -80.8200 85° East 501 577 35,000  Level Cleveland Center
12:55PM 42.5769 -80.6256 86° East 507 583 35,000  Level Cleveland Center
12:56PM 42.5872 -80.4367 86° East 507 583 35,000  Level Cleveland Center
12:57PM 42.5972 -80.2250 86° East 507 583 35,000  Level Cleveland Center
12:58PM 42.6089 -80.0303 85° East 513 590 35,000  Level Cleveland Center
12:59PM 42.6203 -79.8356 85° East 518 596 35,000  Level Cleveland Center
01:00PM 42.6272 -79.6408 87° East 518 596 35,000  Level Cleveland Center
01:01PM 42.6381 -79.4486 86° East 518 596 35,000  Level Cleveland Center
01:02PM 42.6444 -79.2594 87° East 518 596 35,000 120 Level Cleveland Center
01:03PM 42.6525 -79.0617 87° East 518 596 35,300 420 Climbing Cleveland Center
01:04PM 42.6622 -78.8667 86° East 518 596 35,900 660 Climbing Cleveland Center
01:05PM 42.6675 -78.6717 88° East 518 596 36,700 540 Climbing Cleveland Center
01:06PM 42.6744 -78.4736 87° East 518 596 37,000 120 Climbing Cleveland Center
01:07PM 42.6831 -78.2728 87° East 518 596 37,000  Level Cleveland Center
01:08PM 42.6894 -78.0778 87° East 518 596 37,000  Level Cleveland Center
01:09PM 42.6953 -77.8797 88° East 518 596 37,000 -60 Level Cleveland Center
01:10PM 42.7014 -77.7014 87° East 518 596 36,900  Descending Cleveland Center
01:11PM 42.7081 -77.4778 88° East 525 604 37,000  Climbing Cleveland Center
01:12PM 42.7100 -77.3194 89° East 531 611 37,000  Level Cleveland Center
01:14PM 42.7194 -77.0050 88° East 530 610 37,000  Level Boston Center
01:15PM 42.7231 -76.8072 89° East 525 604 37,000  Level Boston Center
01:16PM 42.7261 -76.6094 89° East 520 598 37,000  Level Boston Center
01:17PM 42.7311 -76.4119 88° East 520 598 37,000  Level Boston Center
01:18PM 42.7336 -76.2169 89° East 515 593 37,000 -60 Level Boston Center
01:19PM 42.7381 -76.0192 88° East 515 593 36,900 -60 Descending Boston Center
01:20PM 42.7400 -75.8214 89° East 515 593 36,900  Level Boston Center
01:21PM 42.7414 -75.6236 89° East 515 593 36,900  Level Boston Center
01:22PM 42.7425 -75.4256 89° East 515 593 36,900  Level Boston Center
01:23PM 42.7456 -75.2278 89° East 515 593 36,900  Level Boston Center
01:24PM 42.7469 -74.9903 89° East 515 593 37,000  Climbing Boston Center
01:25PM 42.7450 -74.7953 91° East 515 593 36,900 -60 Descending Boston Center
01:26PM 42.7467 -74.5944 89° East 515 593 36,900  Level Boston Center
01:27PM 42.7467 -74.3656 90° East 515 593 36,900  Level Boston Center
01:28PM 42.7478 -74.1703 89° East 515 593 36,900  Level Boston Center
01:29PM 42.7486 -73.9753 90° East 515 593 36,900  Level Boston Center
01:30PM 42.7425 -73.7831 92° East 515 593 36,900  Level Boston Center
01:31PM 42.7278 -73.6131 97° East 515 593 36,900 -1,500 Level Boston Center
01:32PM 42.7069 -73.3981 97° East 515 593 34,000 -2,760 Descending Boston Center
01:33PM 42.6856 -73.1997 98° East 527 606 31,400 -2,460 Descending Boston Center
01:34PM 42.6636 -73.0047 99° East 527 606 29,100 -2,700 Descending Boston Center
01:35PM 42.6394 -72.8069 99° East 527 606 26,000 -2,520 Descending Boston Center
01:36PM 42.6150 -72.5897 99° East 522 601 24,100 -2,400 Descending Boston Center
01:37PM 42.5942 -72.4344 100° East 482 555 21,300 -2,640 Descending Boston Center
01:38PM 42.5733 -72.2736 100° East 475 547 18,900 -2,580 Descending Boston Center
01:39PM 42.5500 -72.0878 100° East 451 519 16,200 -2,340 Descending Boston Center
01:40PM 42.5347 -71.9442 98° East 439 505 14,300 -2,160 Descending Boston Center
01:41PM 42.5214 -71.7725 96° East 421 484 11,900 -1,740 Descending Boston Center
01:42PM 42.5350 -71.6033 84° East 385 443 10,600 -1,020 Descending Boston Center
01:43PM 42.5500 -71.5167 77° East 346 398 10,100 -1,140 Descending KA90
01:44PM 42.5500 -71.3833 90° East 328 377 8,800 -1,260 Descending KA90
01:45PM 42.5667 -71.2667 79° East 301 346 7,500 -1,620 Descending KA90
01:46PM 42.5667 -71.1667 90° East 279 321 5,400 -2,220 Descending KA90
01:47PM 42.5500 -71.0667 103° East 252 290 3,100 -2,340 Descending KA90